O'neill, Nebraska
Current Conditions -  °F | °C
As of 9:15 AM on Wednesday 22 Oct 2014 (Local Time) from KONL Reporting Station
Clear Clear  
Wind Chill: 59°   Ceiling: Unl
Heat Index: 59°   Visibility: 10mi
Dew Point: 56°   Wind: 14mph
Humidity: 89%   Direction: 170°S
Pressure: 29.95"   Gusts: 18mph
Location:  42.47°N, 98.68°W
Report Text: KONL 221415Z AUTO 17012G16KT 10SM CLR 15/13 A2995 RMK AO2 T01490131
Loading
Personal Weather Stations






























Interactive Weather Map
Tropical Storm Tracking
New forecast layout! Learn more

10-Day Weather Forecast

Advertisements
Track Severe Weather on mobile